createdAt,value
2022-09-28T00:02:21.055Z,99026.19
2022-09-28T00:05:27.094Z,99027.69
2022-09-28T00:08:29.778Z,99029.88
2022-09-28T00:11:33.340Z,99029.66
2022-09-28T00:14:35.843Z,99034.03
2022-09-28T00:17:38.514Z,99039.44
2022-09-28T00:20:40.937Z,99040.37
2022-09-28T00:24:02.763Z,99048.94
2022-09-28T00:27:06.158Z,99034.03
2022-09-28T00:30:09.527Z,99028.47
2022-09-28T00:33:11.959Z,99034.72
2022-09-28T00:36:14.655Z,99036.00
2022-09-28T00:39:17.948Z,99031.16
2022-09-28T00:42:23.088Z,99042.44
2022-09-28T00:45:26.199Z,99039.00
2022-09-28T00:48:33.479Z,99036.56
2022-09-28T00:51:36.404Z,99042.06
2022-09-28T00:54:39.577Z,99037.53
2022-09-28T00:57:45.735Z,99032.22
2022-09-28T01:00:50.962Z,99038.03
2022-09-28T01:03:54.323Z,99040.31
2022-09-28T01:06:58.311Z,99045.84
2022-09-28T01:10:01.006Z,99034.00
2022-09-28T01:13:03.876Z,99045.78
2022-09-28T01:16:15.739Z,99031.84
2022-09-28T01:19:22.540Z,99032.03
2022-09-28T01:22:37.693Z,99030.50
2022-09-28T01:25:59.132Z,99026.06
2022-09-28T01:29:06.614Z,99019.25
2022-09-28T01:32:17.472Z,99016.81
2022-09-28T01:35:33.673Z,99027.50
2022-09-28T01:38:44.621Z,99027.69
2022-09-28T01:41:51.347Z,99037.38
2022-09-28T01:44:57.252Z,99034.72
2022-09-28T01:48:03.195Z,99030.19
2022-09-28T01:51:11.855Z,99034.72
2022-09-28T01:54:31.482Z,99041.13
2022-09-28T01:57:42.612Z,99046.63
2022-09-28T02:00:49.663Z,99043.97
2022-09-28T02:04:12.688Z,99054.13
2022-09-28T02:07:34.770Z,99052.25
2022-09-28T02:10:44.418Z,99067.16
2022-09-28T02:14:08.060Z,99053.41
2022-09-28T02:17:11.565Z,99056.59
2022-09-28T02:20:16.360Z,99056.44
2022-09-28T02:23:22.254Z,99061.50
2022-09-28T02:26:37.037Z,99054.22
2022-09-28T02:29:39.800Z,99048.59
2022-09-28T02:32:45.412Z,99054.81
2022-09-28T02:35:48.063Z,99043.38
2022-09-28T02:38:52.293Z,99037.53
2022-09-28T02:42:11.370Z,99039.78
2022-09-28T02:45:14.240Z,99042.69
2022-09-28T02:48:55.792Z,99042.97
2022-09-28T02:52:32.330Z,99047.75
2022-09-28T02:55:43.966Z,99055.22
2022-09-28T02:59:04.245Z,99053.56
2022-09-28T03:02:41.964Z,99050.97
2022-09-28T03:06:29.650Z,99053.59
2022-09-28T03:09:45.599Z,99049.06
2022-09-28T03:12:49.173Z,99042.81
2022-09-28T03:15:51.653Z,99041.94
2022-09-28T03:18:54.412Z,99040.97
2022-09-28T03:21:56.957Z,99037.44
2022-09-28T03:24:59.653Z,99030.12
2022-09-28T03:28:02.868Z,99033.00
2022-09-28T03:31:06.587Z,99039.41
2022-09-28T03:34:09.252Z,99036.09
2022-09-28T03:37:11.923Z,99022.88
2022-09-28T03:40:14.866Z,99032.06
2022-09-28T03:43:17.823Z,99022.22
2022-09-28T03:46:20.704Z,99026.59
2022-09-28T03:49:24.006Z,99027.56
2022-09-28T03:52:26.483Z,99022.31
2022-09-28T03:55:29.267Z,99027.75
2022-09-28T03:58:32.020Z,99021.72
2022-09-28T04:01:34.875Z,99024.22
2022-09-28T04:04:37.674Z,99031.19
2022-09-28T04:07:40.190Z,99022.31
2022-09-28T04:10:43.035Z,99015.34
2022-09-28T04:13:48.349Z,99012.94
2022-09-28T04:16:54.322Z,99016.41
2022-09-28T04:19:57.834Z,98994.41
2022-09-28T04:23:00.845Z,99021.97
2022-09-28T04:26:06.387Z,99023.81
2022-09-28T04:29:19.413Z,99023.13
2022-09-28T04:32:22.500Z,99021.59
2022-09-28T04:35:26.371Z,99009.91
2022-09-28T04:38:48.859Z,99010.06
2022-09-28T04:41:52.426Z,99011.63
2022-09-28T04:44:57.204Z,99013.41
2022-09-28T04:48:00.032Z,99019.66
2022-09-28T04:51:02.813Z,99017.84
2022-09-28T04:54:06.046Z,99016.88
2022-09-28T04:57:08.548Z,99014.16
2022-09-28T05:00:13.267Z,99010.56
2022-09-28T05:03:17.809Z,99015.03
2022-09-28T05:06:22.967Z,99017.59
2022-09-28T05:09:26.504Z,99016.38
2022-09-28T05:12:29.237Z,99020.53
2022-09-28T05:15:31.736Z,99016.69
2022-09-28T05:18:34.548Z,99012.22
2022-09-28T05:21:37.069Z,99020.19
2022-09-28T05:24:39.903Z,99002.31
2022-09-28T05:27:42.444Z,99004.84
2022-09-28T05:31:01.496Z,98997.59
2022-09-28T05:34:04.299Z,98992.00
2022-09-28T05:37:07.104Z,98991.91
2022-09-28T05:40:10.250Z,98987.28
2022-09-28T05:43:13.996Z,98986.09
2022-09-28T05:46:16.983Z,98988.50
2022-09-28T05:49:20.023Z,98986.56
2022-09-28T05:52:22.681Z,98977.00
2022-09-28T05:55:25.882Z,98970.56
2022-09-28T05:58:28.927Z,98969.63
2022-09-28T06:01:32.024Z,98955.59
2022-09-28T06:04:35.180Z,98951.56
2022-09-28T06:07:37.690Z,98952.19
2022-09-28T06:10:41.036Z,98952.81
2022-09-28T06:13:43.588Z,98945.28
2022-09-28T06:16:47.443Z,98945.00
2022-09-28T06:19:52.374Z,98933.13
2022-09-28T06:22:56.092Z,98932.53
2022-09-28T06:25:59.944Z,98942.22
2022-09-28T06:29:03.605Z,98940.69
2022-09-28T06:32:07.452Z,98939.72
2022-09-28T06:35:10.851Z,98937.69
2022-09-28T06:38:13.535Z,98935.28
2022-09-28T06:41:16.727Z,98935.94
2022-09-28T06:44:20.126Z,98929.13
2022-09-28T06:47:24.275Z,98927.44
2022-09-28T06:50:32.257Z,98929.44
2022-09-28T06:53:37.458Z,98945.88
2022-09-28T06:56:42.851Z,98940.38
2022-09-28T06:59:45.771Z,98941.37
2022-09-28T07:02:48.273Z,98944.09
2022-09-28T07:05:54.080Z,98944.38
2022-09-28T07:09:24.653Z,98954.69
2022-09-28T07:12:35.276Z,98949.31
2022-09-28T07:15:38.202Z,98941.87
2022-09-28T07:18:42.338Z,98942.03
2022-09-28T07:21:46.810Z,98940.59
2022-09-28T07:24:51.104Z,98931.59
2022-09-28T07:27:59.683Z,98932.19
2022-09-28T07:31:03.456Z,98928.56
2022-09-28T07:34:06.765Z,98931.50
2022-09-28T07:37:13.495Z,98934.50
2022-09-28T07:40:34.732Z,98920.28
2022-09-28T07:43:40.061Z,98915.69
2022-09-28T07:46:43.417Z,98910.75
2022-09-28T07:49:46.597Z,98896.84
2022-09-28T07:52:49.553Z,98903.53
2022-09-28T07:56:02.148Z,98889.00
2022-09-28T07:59:05.324Z,98884.12
2022-09-28T08:02:09.443Z,98865.00
2022-09-28T08:05:12.504Z,98861.00
2022-09-28T08:08:15.520Z,98844.75
2022-09-28T08:11:19.449Z,98861.66
2022-09-28T08:14:22.425Z,98855.97
2022-09-28T08:17:27.113Z,98869.25
2022-09-28T08:20:51.619Z,98855.72
2022-09-28T08:23:54.663Z,98851.84
2022-09-28T08:26:57.275Z,98846.41
2022-09-28T08:30:02.251Z,98845.88
2022-09-28T08:33:07.822Z,98839.41
2022-09-28T08:36:12.400Z,98837.38
2022-09-28T08:39:16.144Z,98832.66
2022-09-28T08:42:34.998Z,98820.56
2022-09-28T08:45:37.822Z,98819.72
2022-09-28T08:52:30.410Z,98821.13
2022-09-28T08:55:37.003Z,98813.00
2022-09-28T08:58:45.922Z,98824.31
2022-09-28T09:01:56.175Z,98811.25
2022-09-28T09:05:00.855Z,98807.88
2022-09-28T09:08:45.520Z,98792.03
2022-09-28T09:12:19.366Z,98799.00
2022-09-28T09:15:48.213Z,98772.50
2022-09-28T09:19:16.551Z,98792.66
2022-09-28T09:22:35.064Z,98799.78
2022-09-28T09:25:43.179Z,98780.06
2022-09-28T09:28:56.283Z,98777.94
2022-09-28T09:32:06.350Z,98778.16
2022-09-28T09:35:30.780Z,98778.75
2022-09-28T09:38:39.733Z,98781.06
2022-09-28T09:42:28.233Z,98770.06
2022-09-28T09:46:00.225Z,98773.19
2022-09-28T09:49:19.785Z,98754.25
2022-09-28T09:52:48.560Z,98751.78
2022-09-28T09:55:57.331Z,98767.38
2022-09-28T09:59:07.976Z,98763.75
2022-09-28T10:02:34.748Z,98755.47
2022-09-28T10:05:39.318Z,98762.75
2022-09-28T10:08:46.163Z,98758.03
2022-09-28T10:11:50.327Z,98746.66
2022-09-28T10:14:54.817Z,98743.97
2022-09-28T10:18:06.797Z,98757.72
2022-09-28T10:21:18.574Z,98757.88
2022-09-28T10:24:31.566Z,98747.81
2022-09-28T10:27:35.675Z,98751.13
2022-09-28T10:30:44.287Z,98707.63
2022-09-28T10:33:47.068Z,98721.75
2022-09-28T10:36:58.486Z,98724.53
2022-09-28T10:40:02.300Z,98713.97
2022-09-28T10:43:08.310Z,98706.97
2022-09-28T10:46:12.993Z,98707.50
2022-09-28T10:49:17.953Z,98706.06
2022-09-28T10:52:41.685Z,98706.34
2022-09-28T10:56:00.352Z,98710.59
2022-09-28T10:59:02.954Z,98702.91
2022-09-28T11:02:26.536Z,98703.19
2022-09-28T11:05:30.194Z,98705.41
2022-09-28T11:08:44.330Z,98696.28
2022-09-28T11:11:47.590Z,98706.66
2022-09-28T11:14:56.956Z,98696.66
2022-09-28T11:18:32.491Z,98709.19
2022-09-28T11:21:43.902Z,98696.22
2022-09-28T11:24:47.358Z,98699.63
2022-09-28T11:27:52.950Z,98696.56
2022-09-28T11:30:55.506Z,98689.09
2022-09-28T11:34:07.334Z,98678.94
2022-09-28T11:37:32.108Z,98666.53
2022-09-28T11:40:55.084Z,98661.09
2022-09-28T11:44:12.608Z,98647.13
2022-09-28T11:47:30.397Z,98651.94
2022-09-28T11:50:42.940Z,98653.31
2022-09-28T11:53:50.756Z,98654.94
2022-09-28T11:56:53.681Z,98656.47
2022-09-28T12:00:08.318Z,98656.53
2022-09-28T12:03:24.398Z,98660.03
2022-09-28T12:06:51.697Z,98674.00
2022-09-28T12:10:13.287Z,98671.94
2022-09-28T12:13:22.556Z,98669.47
2022-09-28T12:17:00.559Z,98656.16
2022-09-28T12:20:09.055Z,98656.19
2022-09-28T12:23:15.722Z,98664.81
2022-09-28T12:26:37.170Z,98658.50
2022-09-28T12:29:55.030Z,98661.78
2022-09-28T12:33:15.424Z,98652.28
2022-09-28T12:36:30.583Z,98662.84
2022-09-28T12:39:58.965Z,98661.38
2022-09-28T12:43:17.653Z,98648.84
2022-09-28T12:46:23.284Z,98653.72
2022-09-28T12:54:02.889Z,98648.81
2022-09-28T12:57:05.261Z,98653.59
2022-09-28T13:00:10.794Z,98642.13
2022-09-28T13:03:29.067Z,98645.03
2022-09-28T13:07:02.605Z,98650.69
2022-09-28T13:10:22.095Z,98651.00
2022-09-28T13:13:31.548Z,98650.22
2022-09-28T13:17:03.907Z,98653.78
2022-09-28T13:20:24.805Z,98656.28
2022-09-28T13:23:34.913Z,98647.13
2022-09-28T13:26:41.027Z,98642.66
2022-09-28T13:29:43.542Z,98642.56
2022-09-28T13:32:47.639Z,98647.66
2022-09-28T13:35:50.148Z,98643.28
2022-09-28T13:38:54.378Z,98638.59
2022-09-28T13:41:56.984Z,98632.59
2022-09-28T13:45:15.095Z,98630.72
2022-09-28T13:48:20.665Z,98631.72
2022-09-28T13:51:42.163Z,98630.84
2022-09-28T13:54:59.781Z,98629.44
2022-09-28T13:58:06.581Z,98640.50
2022-09-28T14:01:13.145Z,98624.50
2022-09-28T14:04:21.941Z,98619.78
2022-09-28T14:07:25.745Z,98626.03
2022-09-28T14:10:53.708Z,98635.13
2022-09-28T14:14:08.425Z,98633.97
2022-09-28T14:17:29.260Z,98648.47
2022-09-28T14:20:35.109Z,98645.50
2022-09-28T14:24:05.532Z,98629.03
2022-09-28T14:27:13.179Z,98640.31
2022-09-28T14:30:17.900Z,98634.72
2022-09-28T14:33:31.064Z,98637.34
2022-09-28T14:37:01.655Z,98642.06
2022-09-28T14:40:40.050Z,98637.53
2022-09-28T14:43:45.783Z,98636.16
2022-09-28T14:46:48.636Z,98644.06
2022-09-28T14:50:00.580Z,98634.34
2022-09-28T14:53:12.175Z,98637.22
2022-09-28T14:56:14.896Z,98643.03
2022-09-28T14:59:19.198Z,98630.13
2022-09-28T15:02:24.820Z,98629.56
2022-09-28T15:05:35.964Z,98634.22
2022-09-28T15:08:39.747Z,98639.75
2022-09-28T15:11:42.963Z,98647.53
2022-09-28T15:14:50.264Z,98648.62
2022-09-28T15:18:02.759Z,98651.03
2022-09-28T15:21:05.605Z,98657.25
2022-09-28T15:25:04.809Z,98647.44
2022-09-28T15:28:18.637Z,98647.47
2022-09-28T15:31:24.412Z,98653.00
2022-09-28T15:34:49.781Z,98645.22
2022-09-28T15:37:53.000Z,98643.19
2022-09-28T15:40:56.158Z,98648.81
2022-09-28T15:44:23.505Z,98641.28
2022-09-28T15:47:28.440Z,98648.16
2022-09-28T15:50:33.091Z,98646.81
2022-09-28T15:53:36.106Z,98654.56
2022-09-28T15:56:59.616Z,98658.44
2022-09-28T16:00:04.665Z,98654.44
2022-09-28T16:03:16.746Z,98657.53
2022-09-28T16:06:19.488Z,98650.94
2022-09-28T16:10:01.714Z,98652.25
2022-09-28T16:13:16.580Z,98651.91
2022-09-28T16:16:31.382Z,98669.03
2022-09-28T16:19:38.107Z,98669.56
2022-09-28T16:22:43.021Z,98665.47
2022-09-28T16:25:51.846Z,98658.69
2022-09-28T16:28:54.632Z,98655.62
2022-09-28T16:31:57.377Z,98673.03
2022-09-28T16:35:20.260Z,98664.66
2022-09-28T16:38:23.004Z,98673.81
2022-09-28T16:41:27.553Z,98669.72
2022-09-28T16:44:32.761Z,98677.75
2022-09-28T16:47:36.018Z,98671.72
2022-09-28T16:50:38.781Z,98665.97
2022-09-28T16:54:00.135Z,98675.16
2022-09-28T16:57:04.060Z,98670.97
2022-09-28T17:00:07.478Z,98673.06
2022-09-28T17:03:14.829Z,98685.84
2022-09-28T17:06:25.335Z,98681.56
2022-09-28T17:09:28.212Z,98698.94
2022-09-28T17:12:30.631Z,98693.69
2022-09-28T17:15:33.672Z,98695.69
2022-09-28T17:18:39.157Z,98699.63
2022-09-28T17:21:49.683Z,98697.16
2022-09-28T17:24:52.065Z,98702.09
2022-09-28T17:27:56.652Z,98697.13
2022-09-28T17:30:59.244Z,98687.50
2022-09-28T17:34:02.003Z,98686.41
2022-09-28T17:37:04.530Z,98676.31
2022-09-28T17:40:13.012Z,98688.47
2022-09-28T17:43:15.534Z,98681.38
2022-09-28T17:46:27.032Z,98686.88
2022-09-28T17:49:29.483Z,98685.22
2022-09-28T17:52:32.296Z,98679.00
2022-09-28T17:55:36.878Z,98681.00
2022-09-28T17:58:39.643Z,98684.66
2022-09-28T18:01:42.267Z,98688.66
2022-09-28T18:04:52.193Z,98695.72
2022-09-28T18:07:55.172Z,98697.87
2022-09-28T18:10:58.087Z,98692.63
2022-09-28T18:14:00.906Z,98700.03
2022-09-28T18:17:03.696Z,98693.19
2022-09-28T18:20:08.850Z,98709.53
2022-09-28T18:23:11.763Z,98709.59
2022-09-28T18:26:15.364Z,98708.72
2022-09-28T18:29:18.330Z,98704.28
2022-09-28T18:32:20.974Z,98703.47
2022-09-28T18:35:23.672Z,98704.13
2022-09-28T18:38:26.465Z,98699.16
2022-09-28T18:41:29.398Z,98707.03
2022-09-28T18:44:31.969Z,98716.81
2022-09-28T18:47:35.005Z,98724.94
2022-09-28T18:50:37.644Z,98716.19
2022-09-28T18:53:40.771Z,98712.22
2022-09-28T18:56:43.239Z,98717.81
2022-09-28T18:59:46.441Z,98721.63
2022-09-28T19:02:49.024Z,98721.78
2022-09-28T19:05:51.814Z,98715.72
2022-09-28T19:08:55.753Z,98715.22
2022-09-28T19:11:58.579Z,98717.28
2022-09-28T19:15:01.087Z,98733.50
2022-09-28T19:18:04.503Z,98734.38
2022-09-28T19:21:09.282Z,98727.94
2022-09-28T19:24:16.808Z,98739.56
2022-09-28T19:27:19.434Z,98733.94
2022-09-28T19:30:22.230Z,98730.19
2022-09-28T19:33:24.742Z,98722.88
2022-09-28T19:36:28.727Z,98732.75
2022-09-28T19:39:31.237Z,98727.19
2022-09-28T19:42:36.284Z,98736.97
2022-09-28T19:45:39.794Z,98739.75
2022-09-28T19:48:43.444Z,98737.94
2022-09-28T19:52:10.931Z,98736.19
2022-09-28T19:55:11.356Z,98737.34
2022-09-28T19:58:13.938Z,98738.31
2022-09-28T20:01:16.828Z,98728.69
2022-09-28T20:04:22.886Z,98739.66
2022-09-28T20:07:25.317Z,98743.31
2022-09-28T20:10:28.041Z,98747.91
2022-09-28T20:13:32.093Z,98750.69
2022-09-28T20:16:36.225Z,98748.88
2022-09-28T20:19:39.229Z,98735.56
2022-09-28T20:22:43.612Z,98742.94
2022-09-28T20:25:46.033Z,98747.53
2022-09-28T20:28:48.796Z,98752.78
2022-09-28T20:31:51.918Z,98745.63
2022-09-28T20:34:54.746Z,98751.03
2022-09-28T20:37:59.562Z,98760.03
2022-09-28T20:41:02.627Z,98762.00
2022-09-28T20:44:06.536Z,98758.41
2022-09-28T20:47:09.600Z,98757.47
2022-09-28T20:50:12.032Z,98754.75
2022-09-28T20:53:14.756Z,98765.72
2022-09-28T20:56:20.435Z,98769.31
2022-09-28T20:59:25.966Z,98785.47
2022-09-28T21:02:28.617Z,98781.06
2022-09-28T21:05:31.413Z,98786.47
2022-09-28T21:08:34.188Z,98791.75
2022-09-28T21:11:37.675Z,98789.91
2022-09-28T21:14:40.173Z,98796.19
2022-09-28T21:17:43.627Z,98798.97
2022-09-28T21:20:50.911Z,98800.72
2022-09-28T21:23:54.457Z,98796.19
2022-09-28T21:26:57.651Z,98794.44
2022-09-28T21:30:01.035Z,98802.78
2022-09-28T21:33:03.584Z,98805.69
2022-09-28T21:36:07.478Z,98808.59
2022-09-28T21:39:10.668Z,98798.47
2022-09-28T21:42:13.484Z,98802.13
2022-09-28T21:45:17.046Z,98808.81
2022-09-28T21:48:20.891Z,98806.47
2022-09-28T21:51:23.507Z,98795.66
2022-09-28T21:54:28.965Z,98795.78
2022-09-28T21:57:31.418Z,98788.78
2022-09-28T22:00:34.574Z,98796.22
2022-09-28T22:03:37.363Z,98801.12
2022-09-28T22:06:39.878Z,98796.53
2022-09-28T22:09:42.629Z,98798.72
2022-09-28T22:12:45.127Z,98788.94
2022-09-28T22:15:53.148Z,98790.91
2022-09-28T22:18:55.703Z,98810.91
2022-09-28T22:21:59.712Z,98810.09
2022-09-28T22:25:02.180Z,98807.53
2022-09-28T22:28:04.900Z,98810.59
2022-09-28T22:31:07.441Z,98801.41
2022-09-28T22:34:10.305Z,98792.56
2022-09-28T22:37:12.721Z,98792.84
2022-09-28T22:40:15.448Z,98794.72
2022-09-28T22:43:18.857Z,98798.38
2022-09-28T22:46:26.882Z,98813.22
2022-09-28T22:49:29.521Z,98808.03
2022-09-28T22:52:32.502Z,98815.31
2022-09-28T22:55:34.920Z,98816.94
2022-09-28T22:58:38.292Z,98817.88
2022-09-28T23:01:40.826Z,98819.63
2022-09-28T23:04:43.677Z,98815.31
2022-09-28T23:07:46.231Z,98827.94
2022-09-28T23:10:49.132Z,98835.16
2022-09-28T23:13:53.185Z,98832.53
2022-09-28T23:16:55.916Z,98846.16
2022-09-28T23:19:58.370Z,98825.44
2022-09-28T23:23:01.230Z,98822.81
2022-09-28T23:26:14.694Z,98832.53
2022-09-28T23:29:17.658Z,98842.59
2022-09-28T23:32:20.233Z,98848.94
2022-09-28T23:35:23.019Z,98852.72
2022-09-28T23:38:26.423Z,98855.81
2022-09-28T23:41:29.564Z,98865.19
2022-09-28T23:44:32.781Z,98871.06
2022-09-28T23:47:37.383Z,98856.09
2022-09-28T23:50:39.842Z,98851.94
2022-09-28T23:53:43.350Z,98857.37
2022-09-28T23:56:45.764Z,98860.34
2022-09-28T23:59:48.479Z,98861.28
